sensor_id;sensor_type;location;lat;lon;timestamp;temperature;humidity
14008;DHT22;61651;45.508;12.232;2024-03-07T00:02:30;14.20;99.90
14008;DHT22;61651;45.508;12.232;2024-03-07T00:05:32;14.20;99.90
14008;DHT22;61651;45.508;12.232;2024-03-07T00:08:34;14.20;99.90
14008;DHT22;61651;45.508;12.232;2024-03-07T00:11:38;13.90;99.90
14008;DHT22;61651;45.508;12.232;2024-03-07T00:14:40;13.60;99.90
14008;DHT22;61651;45.508;12.232;2024-03-07T00:17:42;13.40;99.90
14008;DHT22;61651;45.508;12.232;2024-03-07T00:20:44;13.30;99.90
14008;DHT22;61651;45.508;12.232;2024-03-07T00:23:46;13.50;99.90
14008;DHT22;61651;45.508;12.232;2024-03-07T00:26:50;13.80;99.90
14008;DHT22;61651;45.508;12.232;2024-03-07T00:29:53;13.90;99.90
14008;DHT22;61651;45.508;12.232;2024-03-07T00:32:55;14.00;99.90
14008;DHT22;61651;45.508;12.232;2024-03-07T00:35:57;14.10;99.90
14008;DHT22;61651;45.508;12.232;2024-03-07T00:39:00;14.00;99.90
14008;DHT22;61651;45.508;12.232;2024-03-07T00:42:04;13.70;99.90
14008;DHT22;61651;45.508;12.232;2024-03-07T00:45:06;13.60;99.90
14008;DHT22;61651;45.508;12.232;2024-03-07T00:48:08;13.70;99.90
14008;DHT22;61651;45.508;12.232;2024-03-07T00:51:11;13.90;99.90
14008;DHT22;61651;45.508;12.232;2024-03-07T00:54:14;13.90;99.90
14008;DHT22;61651;45.508;12.232;2024-03-07T00:57:18;13.30;99.90
14008;DHT22;61651;45.508;12.232;2024-03-07T01:00:20;13.40;99.90
14008;DHT22;61651;45.508;12.232;2024-03-07T01:03:22;13.60;99.90
14008;DHT22;61651;45.508;12.232;2024-03-07T01:06:24;13.80;99.90
14008;DHT22;61651;45.508;12.232;2024-03-07T01:09:26;13.90;99.90
14008;DHT22;61651;45.508;12.232;2024-03-07T01:12:30;14.00;99.90
14008;DHT22;61651;45.508;12.232;2024-03-07T01:15:34;14.00;99.90
14008;DHT22;61651;45.508;12.232;2024-03-07T01:18:37;14.10;99.90
14008;DHT22;61651;45.508;12.232;2024-03-07T01:21:39;14.10;99.90
14008;DHT22;61651;45.508;12.232;2024-03-07T01:24:41;14.20;99.90
14008;DHT22;61651;45.508;12.232;2024-03-07T01:27:47;14.20;99.90
14008;DHT22;61651;45.508;12.232;2024-03-07T01:30:50;14.20;99.90
14008;DHT22;61651;45.508;12.232;2024-03-07T01:33:53;14.20;99.90
14008;DHT22;61651;45.508;12.232;2024-03-07T01:36:55;14.20;99.90
14008;DHT22;61651;45.508;12.232;2024-03-07T01:39:57;14.10;99.90
14008;DHT22;61651;45.508;12.232;2024-03-07T01:43:01;14.10;99.90
14008;DHT22;61651;45.508;12.232;2024-03-07T01:46:03;14.00;99.90
14008;DHT22;61651;45.508;12.232;2024-03-07T01:49:05;14.00;99.90
14008;DHT22;61651;45.508;12.232;2024-03-07T01:52:09;14.00;99.90
14008;DHT22;61651;45.508;12.232;2024-03-07T01:55:13;14.00;99.90
14008;DHT22;61651;45.508;12.232;2024-03-07T01:58:19;14.00;99.90
14008;DHT22;61651;45.508;12.232;2024-03-07T02:01:22;14.10;99.90
14008;DHT22;61651;45.508;12.232;2024-03-07T02:04:24;14.00;99.90
14008;DHT22;61651;45.508;12.232;2024-03-07T02:07:27;14.10;99.90
14008;DHT22;61651;45.508;12.232;2024-03-07T02:10:29;14.10;99.90
14008;DHT22;61651;45.508;12.232;2024-03-07T02:13:32;14.10;99.90
14008;DHT22;61651;45.508;12.232;2024-03-07T02:16:34;14.20;99.90
14008;DHT22;61651;45.508;12.232;2024-03-07T02:19:37;14.20;99.90
14008;DHT22;61651;45.508;12.232;2024-03-07T02:22:40;14.20;99.90
14008;DHT22;61651;45.508;12.232;2024-03-07T02:25:42;14.20;99.90
14008;DHT22;61651;45.508;12.232;2024-03-07T02:28:45;14.20;99.90
14008;DHT22;61651;45.508;12.232;2024-03-07T02:31:47;14.20;99.90
14008;DHT22;61651;45.508;12.232;2024-03-07T02:34:49;14.20;99.90
14008;DHT22;61651;45.508;12.232;2024-03-07T02:37:52;14.20;99.90
14008;DHT22;61651;45.508;12.232;2024-03-07T02:40:54;14.20;99.90
14008;DHT22;61651;45.508;12.232;2024-03-07T02:43:56;14.20;99.90
14008;DHT22;61651;45.508;12.232;2024-03-07T02:46:58;14.20;99.90
14008;DHT22;61651;45.508;12.232;2024-03-07T02:50:04;14.20;99.90
14008;DHT22;61651;45.508;12.232;2024-03-07T02:53:08;14.20;99.90
14008;DHT22;61651;45.508;12.232;2024-03-07T02:56:10;14.10;99.90
14008;DHT22;61651;45.508;12.232;2024-03-07T02:59:12;13.50;99.90
14008;DHT22;61651;45.508;12.232;2024-03-07T03:02:15;13.20;99.90
14008;DHT22;61651;45.508;12.232;2024-03-07T03:05:17;13.20;99.90
14008;DHT22;61651;45.508;12.232;2024-03-07T03:08:20;13.10;99.90
14008;DHT22;61651;45.508;12.232;2024-03-07T03:11:23;13.30;99.90
14008;DHT22;61651;45.508;12.232;2024-03-07T03:14:26;13.50;99.90
14008;DHT22;61651;45.508;12.232;2024-03-07T03:17:28;13.70;99.90
14008;DHT22;61651;45.508;12.232;2024-03-07T03:20:31;13.90;99.90
14008;DHT22;61651;45.508;12.232;2024-03-07T03:23:36;13.90;99.90
14008;DHT22;61651;45.508;12.232;2024-03-07T03:26:38;14.00;99.90
14008;DHT22;61651;45.508;12.232;2024-03-07T03:29:41;14.10;99.90
14008;DHT22;61651;45.508;12.232;2024-03-07T03:32:44;14.10;99.90
14008;DHT22;61651;45.508;12.232;2024-03-07T03:35:46;14.10;99.90
14008;DHT22;61651;45.508;12.232;2024-03-07T03:38:49;14.10;99.90
14008;DHT22;61651;45.508;12.232;2024-03-07T03:41:51;14.10;99.90
14008;DHT22;61651;45.508;12.232;2024-03-07T03:44:53;14.00;99.90
14008;DHT22;61651;45.508;12.232;2024-03-07T03:47:55;13.90;99.90
14008;DHT22;61651;45.508;12.232;2024-03-07T03:50:57;13.80;99.90
14008;DHT22;61651;45.508;12.232;2024-03-07T03:54:01;13.80;99.90
14008;DHT22;61651;45.508;12.232;2024-03-07T03:57:03;13.70;99.90
14008;DHT22;61651;45.508;12.232;2024-03-07T04:00:07;13.80;99.90
14008;DHT22;61651;45.508;12.232;2024-03-07T04:03:13;13.90;99.90
14008;DHT22;61651;45.508;12.232;2024-03-07T04:06:15;13.80;99.90
14008;DHT22;61651;45.508;12.232;2024-03-07T04:09:19;13.80;99.90
14008;DHT22;61651;45.508;12.232;2024-03-07T04:12:20;13.90;99.90
14008;DHT22;61651;45.508;12.232;2024-03-07T04:15:22;14.00;99.90
14008;DHT22;61651;45.508;12.232;2024-03-07T04:18:27;14.00;99.90
14008;DHT22;61651;45.508;12.232;2024-03-07T04:21:29;14.00;99.90
14008;DHT22;61651;45.508;12.232;2024-03-07T04:24:32;13.90;99.90
14008;DHT22;61651;45.508;12.232;2024-03-07T04:27:34;13.80;99.90
14008;DHT22;61651;45.508;12.232;2024-03-07T04:30:37;13.90;99.90
14008;DHT22;61651;45.508;12.232;2024-03-07T04:33:39;13.90;99.90
14008;DHT22;61651;45.508;12.232;2024-03-07T04:36:41;14.00;99.90
14008;DHT22;61651;45.508;12.232;2024-03-07T04:39:45;14.00;99.90
14008;DHT22;61651;45.508;12.232;2024-03-07T04:42:48;14.00;99.90
14008;DHT22;61651;45.508;12.232;2024-03-07T04:45:51;14.00;99.90
14008;DHT22;61651;45.508;12.232;2024-03-07T04:48:52;14.00;99.90
14008;DHT22;61651;45.508;12.232;2024-03-07T04:51:56;14.00;99.90
14008;DHT22;61651;45.508;12.232;2024-03-07T04:54:59;14.00;99.90
14008;DHT22;61651;45.508;12.232;2024-03-07T04:58:01;14.00;99.90
14008;DHT22;61651;45.508;12.232;2024-03-07T05:01:04;14.00;99.90
14008;DHT22;61651;45.508;12.232;2024-03-07T05:04:06;13.90;99.90
14008;DHT22;61651;45.508;12.232;2024-03-07T05:07:08;13.90;99.90
14008;DHT22;61651;45.508;12.232;2024-03-07T05:58:54;13.80;99.90
14008;DHT22;61651;45.508;12.232;2024-03-07T06:01:56;13.80;99.90
14008;DHT22;61651;45.508;12.232;2024-03-07T06:04:58;13.80;99.90
14008;DHT22;61651;45.508;12.232;2024-03-07T06:08:01;13.80;99.90
14008;DHT22;61651;45.508;12.232;2024-03-07T06:11:04;13.70;99.90
14008;DHT22;61651;45.508;12.232;2024-03-07T06:14:09;13.70;99.90
14008;DHT22;61651;45.508;12.232;2024-03-07T06:17:14;13.70;99.90
14008;DHT22;61651;45.508;12.232;2024-03-07T06:20:16;13.70;99.90
14008;DHT22;61651;45.508;12.232;2024-03-07T06:23:23;13.80;99.90
14008;DHT22;61651;45.508;12.232;2024-03-07T06:26:25;13.80;99.90
14008;DHT22;61651;45.508;12.232;2024-03-07T06:29:39;13.90;99.90
14008;DHT22;61651;45.508;12.232;2024-03-07T06:32:41;13.60;99.90
14008;DHT22;61651;45.508;12.232;2024-03-07T06:35:43;13.20;99.90
14008;DHT22;61651;45.508;12.232;2024-03-07T06:38:45;13.00;99.90
14008;DHT22;61651;45.508;12.232;2024-03-07T06:41:47;13.20;99.90
14008;DHT22;61651;45.508;12.232;2024-03-07T06:44:50;13.40;99.90
14008;DHT22;61651;45.508;12.232;2024-03-07T06:47:52;13.60;99.90
14008;DHT22;61651;45.508;12.232;2024-03-07T06:50:56;13.70;99.90
14008;DHT22;61651;45.508;12.232;2024-03-07T06:53:58;13.80;99.90
14008;DHT22;61651;45.508;12.232;2024-03-07T06:57:00;13.90;99.90
14008;DHT22;61651;45.508;12.232;2024-03-07T07:00:06;13.70;99.90
14008;DHT22;61651;45.508;12.232;2024-03-07T07:03:11;13.50;99.90
14008;DHT22;61651;45.508;12.232;2024-03-07T07:06:15;13.60;99.90
14008;DHT22;61651;45.508;12.232;2024-03-07T07:09:17;13.70;99.90
14008;DHT22;61651;45.508;12.232;2024-03-07T07:12:19;13.70;99.90
14008;DHT22;61651;45.508;12.232;2024-03-07T07:15:22;13.70;99.90
14008;DHT22;61651;45.508;12.232;2024-03-07T07:18:24;13.50;99.90
14008;DHT22;61651;45.508;12.232;2024-03-07T07:21:26;13.70;99.90
14008;DHT22;61651;45.508;12.232;2024-03-07T07:24:28;13.80;99.90
14008;DHT22;61651;45.508;12.232;2024-03-07T07:27:35;13.80;99.90
14008;DHT22;61651;45.508;12.232;2024-03-07T07:30:39;13.50;99.90
14008;DHT22;61651;45.508;12.232;2024-03-07T07:33:41;13.40;99.90
14008;DHT22;61651;45.508;12.232;2024-03-07T07:36:44;13.20;99.90
14008;DHT22;61651;45.508;12.232;2024-03-07T07:39:45;13.10;99.90
14008;DHT22;61651;45.508;12.232;2024-03-07T07:42:49;13.20;99.90
14008;DHT22;61651;45.508;12.232;2024-03-07T07:45:53;13.20;99.90
14008;DHT22;61651;45.508;12.232;2024-03-07T07:48:55;13.40;99.90
14008;DHT22;61651;45.508;12.232;2024-03-07T07:51:57;13.60;99.90
14008;DHT22;61651;45.508;12.232;2024-03-07T07:54:59;13.70;99.90
14008;DHT22;61651;45.508;12.232;2024-03-07T07:58:01;13.70;99.90
14008;DHT22;61651;45.508;12.232;2024-03-07T08:01:06;13.60;99.90
14008;DHT22;61651;45.508;12.232;2024-03-07T08:04:12;13.30;99.90
14008;DHT22;61651;45.508;12.232;2024-03-07T08:07:14;13.20;99.90
14008;DHT22;61651;45.508;12.232;2024-03-07T08:10:17;13.20;99.90
14008;DHT22;61651;45.508;12.232;2024-03-07T08:13:19;13.20;99.90
14008;DHT22;61651;45.508;12.232;2024-03-07T08:16:23;13.20;99.90
14008;DHT22;61651;45.508;12.232;2024-03-07T08:19:25;13.20;99.90
14008;DHT22;61651;45.508;12.232;2024-03-07T08:22:27;13.40;99.90
14008;DHT22;61651;45.508;12.232;2024-03-07T08:25:30;13.50;99.90
14008;DHT22;61651;45.508;12.232;2024-03-07T08:28:32;13.90;99.90
14008;DHT22;61651;45.508;12.232;2024-03-07T08:31:35;14.00;99.90
14008;DHT22;61651;45.508;12.232;2024-03-07T08:34:38;13.70;99.90
14008;DHT22;61651;45.508;12.232;2024-03-07T08:37:41;13.20;99.90
14008;DHT22;61651;45.508;12.232;2024-03-07T08:40:44;12.60;99.90
14008;DHT22;61651;45.508;12.232;2024-03-07T08:43:46;12.50;99.90
14008;DHT22;61651;45.508;12.232;2024-03-07T08:46:51;12.70;99.90
14008;DHT22;61651;45.508;12.232;2024-03-07T08:49:53;13.20;99.90
14008;DHT22;61651;45.508;12.232;2024-03-07T08:52:55;13.30;99.90
14008;DHT22;61651;45.508;12.232;2024-03-07T08:55:57;13.60;99.90
14008;DHT22;61651;45.508;12.232;2024-03-07T08:59:02;13.90;99.90
14008;DHT22;61651;45.508;12.232;2024-03-07T09:02:05;14.30;99.90
14008;DHT22;61651;45.508;12.232;2024-03-07T09:05:08;14.50;99.90
14008;DHT22;61651;45.508;12.232;2024-03-07T09:08:10;14.80;99.90
14008;DHT22;61651;45.508;12.232;2024-03-07T09:11:12;15.00;99.90
14008;DHT22;61651;45.508;12.232;2024-03-07T09:14:14;15.10;99.90
14008;DHT22;61651;45.508;12.232;2024-03-07T09:17:18;15.20;99.90
14008;DHT22;61651;45.508;12.232;2024-03-07T09:20:20;15.20;99.90
14008;DHT22;61651;45.508;12.232;2024-03-07T09:23:22;15.30;99.90
14008;DHT22;61651;45.508;12.232;2024-03-07T09:26:24;15.40;99.90
14008;DHT22;61651;45.508;12.232;2024-03-07T09:29:26;15.40;99.90
14008;DHT22;61651;45.508;12.232;2024-03-07T09:32:29;15.50;99.90
14008;DHT22;61651;45.508;12.232;2024-03-07T09:35:33;15.50;99.90
14008;DHT22;61651;45.508;12.232;2024-03-07T09:38:35;15.50;99.90
14008;DHT22;61651;45.508;12.232;2024-03-07T09:41:37;15.50;99.90
14008;DHT22;61651;45.508;12.232;2024-03-07T09:44:40;15.50;99.90
14008;DHT22;61651;45.508;12.232;2024-03-07T09:47:45;15.50;99.90
14008;DHT22;61651;45.508;12.232;2024-03-07T09:50:50;15.60;99.90
14008;DHT22;61651;45.508;12.232;2024-03-07T09:53:56;15.70;99.90
14008;DHT22;61651;45.508;12.232;2024-03-07T09:57:00;15.70;99.90
14008;DHT22;61651;45.508;12.232;2024-03-07T10:00:06;15.70;99.90
14008;DHT22;61651;45.508;12.232;2024-03-07T10:03:12;15.30;99.90
14008;DHT22;61651;45.508;12.232;2024-03-07T10:06:14;15.00;99.90
14008;DHT22;61651;45.508;12.232;2024-03-07T10:09:16;15.00;99.90
14008;DHT22;61651;45.508;12.232;2024-03-07T10:12:20;15.30;99.90
14008;DHT22;61651;45.508;12.232;2024-03-07T10:15:27;15.50;99.90
14008;DHT22;61651;45.508;12.232;2024-03-07T10:18:31;15.70;99.90
14008;DHT22;61651;45.508;12.232;2024-03-07T10:21:34;15.80;99.90
14008;DHT22;61651;45.508;12.232;2024-03-07T10:24:36;15.90;99.90
14008;DHT22;61651;45.508;12.232;2024-03-07T10:27:38;16.00;99.90
14008;DHT22;61651;45.508;12.232;2024-03-07T10:30:41;16.10;99.90
14008;DHT22;61651;45.508;12.232;2024-03-07T10:33:46;16.10;99.90
14008;DHT22;61651;45.508;12.232;2024-03-07T10:36:48;16.20;99.90
14008;DHT22;61651;45.508;12.232;2024-03-07T10:39:50;16.30;99.90
14008;DHT22;61651;45.508;12.232;2024-03-07T10:42:56;16.40;99.90
14008;DHT22;61651;45.508;12.232;2024-03-07T10:45:59;16.50;99.90
14008;DHT22;61651;45.508;12.232;2024-03-07T10:49:03;16.50;99.90
14008;DHT22;61651;45.508;12.232;2024-03-07T10:52:13;16.60;99.90
14008;DHT22;61651;45.508;12.232;2024-03-07T10:55:30;16.60;99.90
14008;DHT22;61651;45.508;12.232;2024-03-07T10:58:41;16.60;99.90
14008;DHT22;61651;45.508;12.232;2024-03-07T11:01:49;16.60;99.90
14008;DHT22;61651;45.508;12.232;2024-03-07T11:04:52;16.70;99.90
14008;DHT22;61651;45.508;12.232;2024-03-07T11:07:57;16.80;99.90
14008;DHT22;61651;45.508;12.232;2024-03-07T11:11:00;16.80;99.90
14008;DHT22;61651;45.508;12.232;2024-03-07T11:14:02;16.90;99.90
14008;DHT22;61651;45.508;12.232;2024-03-07T11:17:05;16.90;99.90
14008;DHT22;61651;45.508;12.232;2024-03-07T11:20:20;16.60;99.90
14008;DHT22;61651;45.508;12.232;2024-03-07T11:23:26;16.40;99.90
14008;DHT22;61651;45.508;12.232;2024-03-07T11:26:31;15.80;99.90
14008;DHT22;61651;45.508;12.232;2024-03-07T11:29:47;15.40;99.90
14008;DHT22;61651;45.508;12.232;2024-03-07T11:32:54;15.60;99.90
14008;DHT22;61651;45.508;12.232;2024-03-07T11:35:59;15.80;99.90
14008;DHT22;61651;45.508;12.232;2024-03-07T11:39:02;15.60;99.90
14008;DHT22;61651;45.508;12.232;2024-03-07T11:42:25;16.00;99.90
14008;DHT22;61651;45.508;12.232;2024-03-07T11:45:29;16.20;99.90
14008;DHT22;61651;45.508;12.232;2024-03-07T11:48:33;16.10;99.90
14008;DHT22;61651;45.508;12.232;2024-03-07T11:51:37;16.20;99.90
14008;DHT22;61651;45.508;12.232;2024-03-07T11:54:39;16.40;99.90
14008;DHT22;61651;45.508;12.232;2024-03-07T11:57:42;16.60;99.90
14008;DHT22;61651;45.508;12.232;2024-03-07T12:00:46;16.90;99.90
14008;DHT22;61651;45.508;12.232;2024-03-07T12:03:48;17.10;99.90
14008;DHT22;61651;45.508;12.232;2024-03-07T12:06:54;17.30;99.90
14008;DHT22;61651;45.508;12.232;2024-03-07T12:09:56;17.30;99.90
14008;DHT22;61651;45.508;12.232;2024-03-07T12:13:00;17.50;99.90
14008;DHT22;61651;45.508;12.232;2024-03-07T12:16:02;17.60;99.90
14008;DHT22;61651;45.508;12.232;2024-03-07T12:19:05;16.90;99.90
14008;DHT22;61651;45.508;12.232;2024-03-07T12:22:10;17.10;99.90
14008;DHT22;61651;45.508;12.232;2024-03-07T12:25:18;16.90;99.90
14008;DHT22;61651;45.508;12.232;2024-03-07T12:28:22;16.70;99.90
14008;DHT22;61651;45.508;12.232;2024-03-07T12:31:25;17.00;99.90
14008;DHT22;61651;45.508;12.232;2024-03-07T12:34:28;17.30;99.90
14008;DHT22;61651;45.508;12.232;2024-03-07T12:37:36;17.50;99.90
14008;DHT22;61651;45.508;12.232;2024-03-07T12:40:38;17.60;99.90
14008;DHT22;61651;45.508;12.232;2024-03-07T12:43:40;17.70;99.90
14008;DHT22;61651;45.508;12.232;2024-03-07T12:46:46;17.80;99.90
14008;DHT22;61651;45.508;12.232;2024-03-07T12:49:48;17.90;99.90
14008;DHT22;61651;45.508;12.232;2024-03-07T12:52:51;17.90;99.90
14008;DHT22;61651;45.508;12.232;2024-03-07T12:55:53;17.90;99.90
14008;DHT22;61651;45.508;12.232;2024-03-07T12:58:55;18.00;99.90
14008;DHT22;61651;45.508;12.232;2024-03-07T13:02:00;18.00;99.90
14008;DHT22;61651;45.508;12.232;2024-03-07T13:05:03;18.00;99.90
14008;DHT22;61651;45.508;12.232;2024-03-07T13:08:07;18.00;99.90
14008;DHT22;61651;45.508;12.232;2024-03-07T13:11:12;18.00;99.90
14008;DHT22;61651;45.508;12.232;2024-03-07T13:14:14;18.00;99.90
14008;DHT22;61651;45.508;12.232;2024-03-07T13:17:16;18.00;99.90
14008;DHT22;61651;45.508;12.232;2024-03-07T13:20:19;18.10;99.90
14008;DHT22;61651;45.508;12.232;2024-03-07T13:23:24;18.10;99.90
14008;DHT22;61651;45.508;12.232;2024-03-07T13:26:28;18.10;99.90
14008;DHT22;61651;45.508;12.232;2024-03-07T13:29:32;18.00;99.90
14008;DHT22;61651;45.508;12.232;2024-03-07T13:32:34;18.00;99.90
14008;DHT22;61651;45.508;12.232;2024-03-07T13:35:38;18.00;99.90
14008;DHT22;61651;45.508;12.232;2024-03-07T13:38:41;18.00;99.90
14008;DHT22;61651;45.508;12.232;2024-03-07T13:41:44;18.00;99.90
14008;DHT22;61651;45.508;12.232;2024-03-07T13:44:48;17.90;99.90
14008;DHT22;61651;45.508;12.232;2024-03-07T13:47:50;17.90;99.90
14008;DHT22;61651;45.508;12.232;2024-03-07T13:50:53;17.80;99.90
14008;DHT22;61651;45.508;12.232;2024-03-07T13:53:57;17.80;99.90
14008;DHT22;61651;45.508;12.232;2024-03-07T13:57:20;17.80;99.90
14008;DHT22;61651;45.508;12.232;2024-03-07T14:00:32;17.80;99.90
14008;DHT22;61651;45.508;12.232;2024-03-07T14:04:01;17.90;99.90
14008;DHT22;61651;45.508;12.232;2024-03-07T14:11:05;17.80;99.90
14008;DHT22;61651;45.508;12.232;2024-03-07T14:14:35;17.80;99.90
14008;DHT22;61651;45.508;12.232;2024-03-07T14:18:03;17.90;99.90
14008;DHT22;61651;45.508;12.232;2024-03-07T14:21:46;17.90;99.90
14008;DHT22;61651;45.508;12.232;2024-03-07T14:25:17;17.80;99.90
14008;DHT22;61651;45.508;12.232;2024-03-07T14:28:52;17.90;99.90
14008;DHT22;61651;45.508;12.232;2024-03-07T14:31:57;17.80;99.90
14008;DHT22;61651;45.508;12.232;2024-03-07T14:35:02;17.70;99.90
14008;DHT22;61651;45.508;12.232;2024-03-07T14:38:22;17.70;99.90
14008;DHT22;61651;45.508;12.232;2024-03-07T14:41:43;17.70;99.90
14008;DHT22;61651;45.508;12.232;2024-03-07T14:44:48;17.70;99.90
14008;DHT22;61651;45.508;12.232;2024-03-07T14:47:51;17.70;99.90
14008;DHT22;61651;45.508;12.232;2024-03-07T14:50:54;17.70;99.90
14008;DHT22;61651;45.508;12.232;2024-03-07T14:53:56;17.60;99.90
14008;DHT22;61651;45.508;12.232;2024-03-07T14:56:59;17.50;99.90
14008;DHT22;61651;45.508;12.232;2024-03-07T15:00:02;17.50;99.90
14008;DHT22;61651;45.508;12.232;2024-03-07T15:03:10;17.50;99.90
14008;DHT22;61651;45.508;12.232;2024-03-07T15:06:12;17.50;99.90
14008;DHT22;61651;45.508;12.232;2024-03-07T15:09:15;17.50;99.90
14008;DHT22;61651;45.508;12.232;2024-03-07T15:12:22;17.50;99.90
14008;DHT22;61651;45.508;12.232;2024-03-07T15:15:25;17.50;99.90
14008;DHT22;61651;45.508;12.232;2024-03-07T15:18:31;17.40;99.90
14008;DHT22;61651;45.508;12.232;2024-03-07T15:21:33;17.40;99.90
14008;DHT22;61651;45.508;12.232;2024-03-07T15:24:35;17.40;99.90
14008;DHT22;61651;45.508;12.232;2024-03-07T15:27:39;17.40;99.90
14008;DHT22;61651;45.508;12.232;2024-03-07T15:30:43;17.40;99.90
14008;DHT22;61651;45.508;12.232;2024-03-07T15:33:45;17.30;99.90
14008;DHT22;61651;45.508;12.232;2024-03-07T15:36:59;17.30;99.90
14008;DHT22;61651;45.508;12.232;2024-03-07T15:40:05;17.30;99.90
14008;DHT22;61651;45.508;12.232;2024-03-07T15:43:12;17.30;99.90
14008;DHT22;61651;45.508;12.232;2024-03-07T15:46:16;17.20;99.90
14008;DHT22;61651;45.508;12.232;2024-03-07T15:49:18;17.20;99.90
14008;DHT22;61651;45.508;12.232;2024-03-07T15:52:20;17.20;99.90
14008;DHT22;61651;45.508;12.232;2024-03-07T15:55:22;17.10;99.90
14008;DHT22;61651;45.508;12.232;2024-03-07T15:58:24;17.10;99.90
14008;DHT22;61651;45.508;12.232;2024-03-07T16:01:28;16.50;99.90
14008;DHT22;61651;45.508;12.232;2024-03-07T16:04:30;16.30;99.90
14008;DHT22;61651;45.508;12.232;2024-03-07T16:07:32;16.40;99.90
14008;DHT22;61651;45.508;12.232;2024-03-07T16:10:36;16.00;99.90
14008;DHT22;61651;45.508;12.232;2024-03-07T16:13:38;15.80;99.90
14008;DHT22;61651;45.508;12.232;2024-03-07T16:16:41;15.70;99.90
14008;DHT22;61651;45.508;12.232;2024-03-07T16:19:43;15.40;99.90
14008;DHT22;61651;45.508;12.232;2024-03-07T16:22:45;15.20;99.90
14008;DHT22;61651;45.508;12.232;2024-03-07T16:25:50;14.90;99.90
14008;DHT22;61651;45.508;12.232;2024-03-07T16:28:52;14.80;99.90
14008;DHT22;61651;45.508;12.232;2024-03-07T16:31:55;15.00;99.90
14008;DHT22;61651;45.508;12.232;2024-03-07T16:34:57;15.30;99.90
14008;DHT22;61651;45.508;12.232;2024-03-07T16:37:59;15.50;99.90
14008;DHT22;61651;45.508;12.232;2024-03-07T16:41:03;15.50;99.90
14008;DHT22;61651;45.508;12.232;2024-03-07T16:44:06;15.80;99.90
14008;DHT22;61651;45.508;12.232;2024-03-07T16:47:10;15.90;99.90
14008;DHT22;61651;45.508;12.232;2024-03-07T16:50:13;16.10;99.90
14008;DHT22;61651;45.508;12.232;2024-03-07T16:53:15;16.20;99.90
14008;DHT22;61651;45.508;12.232;2024-03-07T16:56:18;16.20;99.90
14008;DHT22;61651;45.508;12.232;2024-03-07T16:59:20;16.10;99.90
14008;DHT22;61651;45.508;12.232;2024-03-07T17:02:23;16.10;99.90
14008;DHT22;61651;45.508;12.232;2024-03-07T17:05:27;16.10;99.90
14008;DHT22;61651;45.508;12.232;2024-03-07T17:08:29;16.10;99.90
14008;DHT22;61651;45.508;12.232;2024-03-07T17:11:34;16.20;99.90
14008;DHT22;61651;45.508;12.232;2024-03-07T17:14:37;16.10;99.90
14008;DHT22;61651;45.508;12.232;2024-03-07T17:17:46;16.20;99.90
14008;DHT22;61651;45.508;12.232;2024-03-07T17:20:48;16.10;99.90
14008;DHT22;61651;45.508;12.232;2024-03-07T17:23:50;16.10;99.90
14008;DHT22;61651;45.508;12.232;2024-03-07T17:26:52;16.10;99.90
14008;DHT22;61651;45.508;12.232;2024-03-07T17:29:56;16.10;99.90
14008;DHT22;61651;45.508;12.232;2024-03-07T17:33:00;16.10;99.90
14008;DHT22;61651;45.508;12.232;2024-03-07T17:36:02;16.00;99.90
14008;DHT22;61651;45.508;12.232;2024-03-07T17:39:07;16.00;99.90
14008;DHT22;61651;45.508;12.232;2024-03-07T17:42:14;15.90;99.90
14008;DHT22;61651;45.508;12.232;2024-03-07T17:45:16;15.90;99.90
14008;DHT22;61651;45.508;12.232;2024-03-07T17:48:21;15.80;99.90
14008;DHT22;61651;45.508;12.232;2024-03-07T17:51:26;15.80;99.90
14008;DHT22;61651;45.508;12.232;2024-03-07T17:54:28;15.80;99.90
14008;DHT22;61651;45.508;12.232;2024-03-07T17:57:31;15.80;99.90
14008;DHT22;61651;45.508;12.232;2024-03-07T18:00:33;15.80;99.90
14008;DHT22;61651;45.508;12.232;2024-03-07T18:03:38;15.80;99.90
14008;DHT22;61651;45.508;12.232;2024-03-07T18:06:40;15.80;99.90
14008;DHT22;61651;45.508;12.232;2024-03-07T18:09:44;15.80;99.90
14008;DHT22;61651;45.508;12.232;2024-03-07T18:12:46;15.70;99.90
14008;DHT22;61651;45.508;12.232;2024-03-07T18:15:50;15.60;99.90
14008;DHT22;61651;45.508;12.232;2024-03-07T18:18:54;15.60;99.90
14008;DHT22;61651;45.508;12.232;2024-03-07T18:21:57;15.60;99.90
14008;DHT22;61651;45.508;12.232;2024-03-07T18:24:59;15.60;99.90
14008;DHT22;61651;45.508;12.232;2024-03-07T18:28:02;15.60;99.90
14008;DHT22;61651;45.508;12.232;2024-03-07T18:31:05;15.60;99.90
14008;DHT22;61651;45.508;12.232;2024-03-07T18:34:17;15.60;99.90
14008;DHT22;61651;45.508;12.232;2024-03-07T18:37:19;15.50;99.90
14008;DHT22;61651;45.508;12.232;2024-03-07T18:40:22;15.40;99.90
14008;DHT22;61651;45.508;12.232;2024-03-07T18:43:25;15.40;99.90
14008;DHT22;61651;45.508;12.232;2024-03-07T18:46:28;15.40;99.90
14008;DHT22;61651;45.508;12.232;2024-03-07T18:49:35;15.30;99.90
14008;DHT22;61651;45.508;12.232;2024-03-07T18:52:38;15.20;99.90
14008;DHT22;61651;45.508;12.232;2024-03-07T18:55:40;15.20;99.90
14008;DHT22;61651;45.508;12.232;2024-03-07T18:58:46;15.20;99.90
14008;DHT22;61651;45.508;12.232;2024-03-07T19:01:50;15.20;99.90
14008;DHT22;61651;45.508;12.232;2024-03-07T19:04:54;15.20;99.90
14008;DHT22;61651;45.508;12.232;2024-03-07T19:07:58;15.20;99.90
14008;DHT22;61651;45.508;12.232;2024-03-07T19:11:00;15.20;99.90
14008;DHT22;61651;45.508;12.232;2024-03-07T19:14:05;15.20;99.90
14008;DHT22;61651;45.508;12.232;2024-03-07T19:17:07;15.10;99.90
14008;DHT22;61651;45.508;12.232;2024-03-07T19:20:11;15.10;99.90
14008;DHT22;61651;45.508;12.232;2024-03-07T19:23:17;15.00;99.90
14008;DHT22;61651;45.508;12.232;2024-03-07T19:26:20;15.00;99.90
14008;DHT22;61651;45.508;12.232;2024-03-07T19:29:22;15.00;99.90
14008;DHT22;61651;45.508;12.232;2024-03-07T19:32:24;15.00;99.90
14008;DHT22;61651;45.508;12.232;2024-03-07T19:35:27;15.00;99.90
14008;DHT22;61651;45.508;12.232;2024-03-07T19:38:30;14.90;99.90
14008;DHT22;61651;45.508;12.232;2024-03-07T19:41:32;15.00;99.90
14008;DHT22;61651;45.508;12.232;2024-03-07T19:44:38;14.90;99.90
14008;DHT22;61651;45.508;12.232;2024-03-07T19:47:40;14.90;99.90
14008;DHT22;61651;45.508;12.232;2024-03-07T19:50:44;14.80;99.90
14008;DHT22;61651;45.508;12.232;2024-03-07T19:53:46;14.80;99.90
14008;DHT22;61651;45.508;12.232;2024-03-07T19:56:48;14.70;99.90